sensor_id;sensor_type;location;lat;lon;timestamp;P1;durP1;ratioP1;P2;durP2;ratioP2
23136;SDS011;11737;50.558;7.258;2022-07-05T00:00:58;3.70;;;2.60;;
23136;SDS011;11737;50.558;7.258;2022-07-05T00:03:28;4.23;;;2.67;;
23136;SDS011;11737;50.558;7.258;2022-07-05T00:05:56;5.53;;;2.37;;
23136;SDS011;11737;50.558;7.258;2022-07-05T00:08:24;6.57;;;2.30;;
23136;SDS011;11737;50.558;7.258;2022-07-05T00:10:53;4.00;;;2.80;;
23136;SDS011;11737;50.558;7.258;2022-07-05T00:13:20;4.97;;;2.13;;
23136;SDS011;11737;50.558;7.258;2022-07-05T00:15:48;7.03;;;2.63;;
23136;SDS011;11737;50.558;7.258;2022-07-05T00:18:18;6.67;;;2.53;;
23136;SDS011;11737;50.558;7.258;2022-07-05T00:20:45;8.87;;;2.57;;
23136;SDS011;11737;50.558;7.258;2022-07-05T00:23:13;9.37;;;2.30;;
23136;SDS011;11737;50.558;7.258;2022-07-05T00:25:40;4.47;;;2.63;;
23136;SDS011;11737;50.558;7.258;2022-07-05T00:28:08;4.43;;;2.73;;
23136;SDS011;11737;50.558;7.258;2022-07-05T00:30:36;5.27;;;2.40;;
23136;SDS011;11737;50.558;7.258;2022-07-05T00:33:04;6.60;;;2.27;;
23136;SDS011;11737;50.558;7.258;2022-07-05T00:35:31;3.37;;;2.60;;
23136;SDS011;11737;50.558;7.258;2022-07-05T00:37:59;8.23;;;2.10;;
23136;SDS011;11737;50.558;7.258;2022-07-05T00:40:26;2.87;;;2.23;;
23136;SDS011;11737;50.558;7.258;2022-07-05T00:42:54;4.10;;;2.43;;
23136;SDS011;11737;50.558;7.258;2022-07-05T00:45:21;8.90;;;1.90;;
23136;SDS011;11737;50.558;7.258;2022-07-05T00:47:49;4.87;;;2.23;;
23136;SDS011;11737;50.558;7.258;2022-07-05T00:50:16;3.57;;;2.40;;
23136;SDS011;11737;50.558;7.258;2022-07-05T00:52:44;6.40;;;2.60;;
23136;SDS011;11737;50.558;7.258;2022-07-05T00:55:12;3.63;;;2.30;;
23136;SDS011;11737;50.558;7.258;2022-07-05T00:57:40;8.27;;;2.50;;
23136;SDS011;11737;50.558;7.258;2022-07-05T01:00:07;4.77;;;2.33;;
23136;SDS011;11737;50.558;7.258;2022-07-05T01:02:36;6.03;;;2.97;;
23136;SDS011;11737;50.558;7.258;2022-07-05T01:05:03;5.03;;;2.43;;
23136;SDS011;11737;50.558;7.258;2022-07-05T01:07:31;4.27;;;2.47;;
23136;SDS011;11737;50.558;7.258;2022-07-05T01:09:59;3.27;;;2.40;;
23136;SDS011;11737;50.558;7.258;2022-07-05T01:12:26;4.37;;;2.33;;
23136;SDS011;11737;50.558;7.258;2022-07-05T01:14:54;5.17;;;2.57;;
23136;SDS011;11737;50.558;7.258;2022-07-05T01:17:23;4.13;;;2.50;;
23136;SDS011;11737;50.558;7.258;2022-07-05T01:19:50;3.53;;;2.60;;
23136;SDS011;11737;50.558;7.258;2022-07-05T01:22:18;3.77;;;2.33;;
23136;SDS011;11737;50.558;7.258;2022-07-05T01:24:47;4.23;;;2.53;;
23136;SDS011;11737;50.558;7.258;2022-07-05T01:27:17;7.57;;;2.50;;
23136;SDS011;11737;50.558;7.258;2022-07-05T01:29:46;7.93;;;2.80;;
23136;SDS011;11737;50.558;7.258;2022-07-05T01:32:13;5.83;;;2.97;;
23136;SDS011;11737;50.558;7.258;2022-07-05T01:34:41;5.73;;;3.03;;
23136;SDS011;11737;50.558;7.258;2022-07-05T01:37:09;6.17;;;2.90;;
23136;SDS011;11737;50.558;7.258;2022-07-05T01:39:37;3.30;;;2.60;;
23136;SDS011;11737;50.558;7.258;2022-07-05T01:42:05;4.53;;;3.00;;
23136;SDS011;11737;50.558;7.258;2022-07-05T01:44:33;4.03;;;2.97;;
23136;SDS011;11737;50.558;7.258;2022-07-05T01:47:04;4.27;;;3.10;;
23136;SDS011;11737;50.558;7.258;2022-07-05T01:49:38;4.80;;;3.20;;
23136;SDS011;11737;50.558;7.258;2022-07-05T01:52:07;4.33;;;2.77;;
23136;SDS011;11737;50.558;7.258;2022-07-05T01:54:34;5.53;;;3.00;;
23136;SDS011;11737;50.558;7.258;2022-07-05T01:57:03;5.23;;;2.67;;
23136;SDS011;11737;50.558;7.258;2022-07-05T01:59:32;5.40;;;2.90;;
23136;SDS011;11737;50.558;7.258;2022-07-05T02:02:00;5.63;;;2.87;;
23136;SDS011;11737;50.558;7.258;2022-07-05T02:04:29;7.40;;;2.97;;
23136;SDS011;11737;50.558;7.258;2022-07-05T02:06:57;7.57;;;2.80;;
23136;SDS011;11737;50.558;7.258;2022-07-05T02:09:25;4.37;;;2.80;;
23136;SDS011;11737;50.558;7.258;2022-07-05T02:11:53;5.47;;;2.93;;
23136;SDS011;11737;50.558;7.258;2022-07-05T02:14:20;5.03;;;2.97;;
23136;SDS011;11737;50.558;7.258;2022-07-05T02:16:48;9.20;;;3.10;;
23136;SDS011;11737;50.558;7.258;2022-07-05T02:19:15;7.40;;;3.00;;
23136;SDS011;11737;50.558;7.258;2022-07-05T02:21:43;4.37;;;2.67;;
23136;SDS011;11737;50.558;7.258;2022-07-05T02:24:10;6.23;;;2.80;;
23136;SDS011;11737;50.558;7.258;2022-07-05T02:26:38;6.87;;;3.17;;
23136;SDS011;11737;50.558;7.258;2022-07-05T02:29:06;3.67;;;2.87;;
23136;SDS011;11737;50.558;7.258;2022-07-05T02:31:33;4.40;;;2.70;;
23136;SDS011;11737;50.558;7.258;2022-07-05T02:34:01;4.70;;;2.50;;
23136;SDS011;11737;50.558;7.258;2022-07-05T02:36:28;3.47;;;2.60;;
23136;SDS011;11737;50.558;7.258;2022-07-05T02:38:56;10.20;;;3.13;;
23136;SDS011;11737;50.558;7.258;2022-07-05T02:41:23;5.80;;;3.57;;
23136;SDS011;11737;50.558;7.258;2022-07-05T02:43:51;6.30;;;3.07;;
23136;SDS011;11737;50.558;7.258;2022-07-05T02:46:19;4.27;;;2.70;;
23136;SDS011;11737;50.558;7.258;2022-07-05T02:48:46;3.93;;;2.57;;
23136;SDS011;11737;50.558;7.258;2022-07-05T02:51:14;3.23;;;2.50;;
23136;SDS011;11737;50.558;7.258;2022-07-05T02:53:42;5.40;;;3.30;;
23136;SDS011;11737;50.558;7.258;2022-07-05T02:56:09;4.23;;;2.23;;
23136;SDS011;11737;50.558;7.258;2022-07-05T02:58:37;6.40;;;3.03;;
23136;SDS011;11737;50.558;7.258;2022-07-05T03:01:04;6.10;;;3.00;;
23136;SDS011;11737;50.558;7.258;2022-07-05T03:03:32;5.20;;;3.00;;
23136;SDS011;11737;50.558;7.258;2022-07-05T03:06:00;6.17;;;3.17;;
23136;SDS011;11737;50.558;7.258;2022-07-05T03:08:27;9.70;;;2.93;;
23136;SDS011;11737;50.558;7.258;2022-07-05T03:10:55;5.37;;;2.90;;
23136;SDS011;11737;50.558;7.258;2022-07-05T03:13:22;8.63;;;3.47;;
23136;SDS011;11737;50.558;7.258;2022-07-05T03:15:50;5.53;;;2.60;;
23136;SDS011;11737;50.558;7.258;2022-07-05T03:18:17;4.47;;;3.00;;
23136;SDS011;11737;50.558;7.258;2022-07-05T03:20:45;4.87;;;2.93;;
23136;SDS011;11737;50.558;7.258;2022-07-05T03:23:12;4.77;;;2.53;;
23136;SDS011;11737;50.558;7.258;2022-07-05T03:25:40;5.07;;;2.97;;
23136;SDS011;11737;50.558;7.258;2022-07-05T03:28:07;7.33;;;2.83;;
23136;SDS011;11737;50.558;7.258;2022-07-05T03:30:35;6.07;;;3.47;;
23136;SDS011;11737;50.558;7.258;2022-07-05T03:33:02;8.23;;;3.47;;
23136;SDS011;11737;50.558;7.258;2022-07-05T03:35:30;5.83;;;2.90;;
23136;SDS011;11737;50.558;7.258;2022-07-05T03:37:57;6.73;;;3.30;;
23136;SDS011;11737;50.558;7.258;2022-07-05T03:40:25;5.73;;;2.73;;
23136;SDS011;11737;50.558;7.258;2022-07-05T03:42:52;4.53;;;2.70;;
23136;SDS011;11737;50.558;7.258;2022-07-05T03:45:20;5.70;;;3.37;;
23136;SDS011;11737;50.558;7.258;2022-07-05T03:47:47;11.60;;;3.70;;
23136;SDS011;11737;50.558;7.258;2022-07-05T03:50:15;4.87;;;2.77;;
23136;SDS011;11737;50.558;7.258;2022-07-05T03:52:42;5.27;;;3.40;;
23136;SDS011;11737;50.558;7.258;2022-07-05T03:55:10;4.50;;;3.13;;
23136;SDS011;11737;50.558;7.258;2022-07-05T03:57:37;7.73;;;3.03;;
23136;SDS011;11737;50.558;7.258;2022-07-05T04:00:05;4.93;;;3.63;;
23136;SDS011;11737;50.558;7.258;2022-07-05T04:02:33;6.17;;;3.37;;
23136;SDS011;11737;50.558;7.258;2022-07-05T04:05:02;7.63;;;3.47;;
23136;SDS011;11737;50.558;7.258;2022-07-05T04:07:29;7.90;;;3.63;;
23136;SDS011;11737;50.558;7.258;2022-07-05T04:09:57;3.77;;;3.33;;
23136;SDS011;11737;50.558;7.258;2022-07-05T04:12:24;7.40;;;3.57;;
23136;SDS011;11737;50.558;7.258;2022-07-05T04:14:52;11.80;;;4.03;;
23136;SDS011;11737;50.558;7.258;2022-07-05T04:17:20;6.20;;;3.97;;
23136;SDS011;11737;50.558;7.258;2022-07-05T04:19:47;9.83;;;7.93;;
23136;SDS011;11737;50.558;7.258;2022-07-05T04:22:15;8.10;;;4.13;;
23136;SDS011;11737;50.558;7.258;2022-07-05T04:24:42;9.57;;;4.40;;
23136;SDS011;11737;50.558;7.258;2022-07-05T04:27:28;13.13;;;4.43;;
23136;SDS011;11737;50.558;7.258;2022-07-05T04:29:55;12.07;;;3.97;;
23136;SDS011;11737;50.558;7.258;2022-07-05T04:32:23;27.13;;;6.60;;
23136;SDS011;11737;50.558;7.258;2022-07-05T04:34:50;52.57;;;9.80;;
23136;SDS011;11737;50.558;7.258;2022-07-05T04:37:18;41.47;;;7.60;;
23136;SDS011;11737;50.558;7.258;2022-07-05T04:39:45;20.60;;;6.43;;
23136;SDS011;11737;50.558;7.258;2022-07-05T04:42:13;15.30;;;5.30;;
23136;SDS011;11737;50.558;7.258;2022-07-05T04:44:40;13.13;;;4.30;;
23136;SDS011;11737;50.558;7.258;2022-07-05T04:47:08;8.73;;;4.63;;
23136;SDS011;11737;50.558;7.258;2022-07-05T04:49:35;8.03;;;4.10;;
23136;SDS011;11737;50.558;7.258;2022-07-05T04:52:03;13.23;;;4.30;;
23136;SDS011;11737;50.558;7.258;2022-07-05T04:54:31;8.10;;;4.20;;
23136;SDS011;11737;50.558;7.258;2022-07-05T04:56:59;13.73;;;4.30;;
23136;SDS011;11737;50.558;7.258;2022-07-05T04:59:26;12.47;;;4.47;;
23136;SDS011;11737;50.558;7.258;2022-07-05T05:01:54;12.40;;;4.47;;
23136;SDS011;11737;50.558;7.258;2022-07-05T05:04:21;8.23;;;4.13;;
23136;SDS011;11737;50.558;7.258;2022-07-05T05:06:49;6.47;;;3.53;;
23136;SDS011;11737;50.558;7.258;2022-07-05T05:09:16;6.77;;;3.30;;
23136;SDS011;11737;50.558;7.258;2022-07-05T05:11:44;8.83;;;3.93;;
23136;SDS011;11737;50.558;7.258;2022-07-05T05:14:11;7.37;;;3.80;;
23136;SDS011;11737;50.558;7.258;2022-07-05T05:16:39;10.70;;;5.13;;
23136;SDS011;11737;50.558;7.258;2022-07-05T05:19:07;7.83;;;4.37;;
23136;SDS011;11737;50.558;7.258;2022-07-05T05:21:34;9.13;;;4.60;;
23136;SDS011;11737;50.558;7.258;2022-07-05T05:24:02;8.93;;;4.30;;
23136;SDS011;11737;50.558;7.258;2022-07-05T05:26:31;5.87;;;4.20;;
23136;SDS011;11737;50.558;7.258;2022-07-05T05:28:58;9.10;;;4.20;;
23136;SDS011;11737;50.558;7.258;2022-07-05T05:31:26;7.70;;;4.60;;
23136;SDS011;11737;50.558;7.258;2022-07-05T05:33:54;12.57;;;5.07;;
23136;SDS011;11737;50.558;7.258;2022-07-05T05:36:21;13.40;;;5.50;;
23136;SDS011;11737;50.558;7.258;2022-07-05T05:38:49;10.80;;;4.57;;
23136;SDS011;11737;50.558;7.258;2022-07-05T05:41:16;15.43;;;5.47;;
23136;SDS011;11737;50.558;7.258;2022-07-05T05:43:44;20.87;;;5.03;;
23136;SDS011;11737;50.558;7.258;2022-07-05T05:46:11;14.53;;;4.60;;
23136;SDS011;11737;50.558;7.258;2022-07-05T05:48:39;12.37;;;3.73;;
23136;SDS011;11737;50.558;7.258;2022-07-05T05:51:06;8.97;;;4.23;;
23136;SDS011;11737;50.558;7.258;2022-07-05T05:53:34;6.10;;;4.10;;
23136;SDS011;11737;50.558;7.258;2022-07-05T05:56:01;11.67;;;4.67;;
23136;SDS011;11737;50.558;7.258;2022-07-05T05:58:29;8.55;;;4.40;;
23136;SDS011;11737;50.558;7.258;2022-07-05T06:00:56;5.12;;;4.08;;
23136;SDS011;11737;50.558;7.258;2022-07-05T06:03:25;11.37;;;4.83;;
23136;SDS011;11737;50.558;7.258;2022-07-05T06:05:53;7.22;;;4.35;;
23136;SDS011;11737;50.558;7.258;2022-07-05T06:08:21;9.05;;;4.05;;
23136;SDS011;11737;50.558;7.258;2022-07-05T06:10:49;10.13;;;4.95;;
23136;SDS011;11737;50.558;7.258;2022-07-05T06:13:17;8.80;;;4.75;;
23136;SDS011;11737;50.558;7.258;2022-07-05T06:15:44;12.65;;;4.50;;
23136;SDS011;11737;50.558;7.258;2022-07-05T06:18:12;7.10;;;4.47;;
23136;SDS011;11737;50.558;7.258;2022-07-05T06:20:40;17.87;;;5.30;;
23136;SDS011;11737;50.558;7.258;2022-07-05T06:23:07;15.25;;;5.10;;
23136;SDS011;11737;50.558;7.258;2022-07-05T06:25:36;10.20;;;5.72;;
23136;SDS011;11737;50.558;7.258;2022-07-05T06:28:04;8.08;;;5.50;;
23136;SDS011;11737;50.558;7.258;2022-07-05T06:30:35;8.93;;;4.75;;
23136;SDS011;11737;50.558;7.258;2022-07-05T06:33:05;7.15;;;5.65;;
23136;SDS011;11737;50.558;7.258;2022-07-05T06:38:05;5.83;;;5.22;;
23136;SDS011;11737;50.558;7.258;2022-07-05T06:40:35;8.08;;;4.95;;
23136;SDS011;11737;50.558;7.258;2022-07-05T06:43:05;15.68;;;5.58;;
23136;SDS011;11737;50.558;7.258;2022-07-05T06:45:34;9.98;;;5.58;;
23136;SDS011;11737;50.558;7.258;2022-07-05T06:48:03;12.53;;;5.67;;
23136;SDS011;11737;50.558;7.258;2022-07-05T06:50:33;7.60;;;5.75;;
23136;SDS011;11737;50.558;7.258;2022-07-05T06:53:02;12.68;;;6.20;;
23136;SDS011;11737;50.558;7.258;2022-07-05T06:55:31;8.25;;;5.40;;
23136;SDS011;11737;50.558;7.258;2022-07-05T06:58:03;16.67;;;6.33;;
23136;SDS011;11737;50.558;7.258;2022-07-05T07:00:32;9.58;;;5.37;;
23136;SDS011;11737;50.558;7.258;2022-07-05T07:03:00;10.85;;;5.90;;
23136;SDS011;11737;50.558;7.258;2022-07-05T07:05:28;11.33;;;5.37;;
23136;SDS011;11737;50.558;7.258;2022-07-05T07:07:55;15.18;;;6.20;;
23136;SDS011;11737;50.558;7.258;2022-07-05T07:10:41;22.55;;;7.22;;
23136;SDS011;11737;50.558;7.258;2022-07-05T07:13:08;9.90;;;5.67;;
23136;SDS011;11737;50.558;7.258;2022-07-05T07:15:36;11.33;;;5.80;;
23136;SDS011;11737;50.558;7.258;2022-07-05T07:18:04;6.95;;;4.95;;
23136;SDS011;11737;50.558;7.258;2022-07-05T07:20:32;12.90;;;6.17;;
23136;SDS011;11737;50.558;7.258;2022-07-05T07:23:00;10.00;;;5.62;;
23136;SDS011;11737;50.558;7.258;2022-07-05T07:25:28;13.20;;;5.17;;
23136;SDS011;11737;50.558;7.258;2022-07-05T07:27:56;15.60;;;5.90;;
23136;SDS011;11737;50.558;7.258;2022-07-05T07:30:25;12.88;;;4.85;;
23136;SDS011;11737;50.558;7.258;2022-07-05T07:32:54;9.08;;;4.72;;
23136;SDS011;11737;50.558;7.258;2022-07-05T07:35:22;13.70;;;5.67;;
23136;SDS011;11737;50.558;7.258;2022-07-05T07:37:49;8.08;;;5.05;;
23136;SDS011;11737;50.558;7.258;2022-07-05T07:40:17;12.07;;;4.50;;
23136;SDS011;11737;50.558;7.258;2022-07-05T07:42:44;8.55;;;5.05;;
23136;SDS011;11737;50.558;7.258;2022-07-05T07:45:12;8.13;;;5.28;;
23136;SDS011;11737;50.558;7.258;2022-07-05T07:47:39;15.45;;;5.55;;
23136;SDS011;11737;50.558;7.258;2022-07-05T07:50:07;10.00;;;5.10;;
23136;SDS011;11737;50.558;7.258;2022-07-05T07:52:37;7.70;;;4.80;;
23136;SDS011;11737;50.558;7.258;2022-07-05T07:55:06;10.55;;;5.92;;
23136;SDS011;11737;50.558;7.258;2022-07-05T07:57:33;16.35;;;5.33;;
23136;SDS011;11737;50.558;7.258;2022-07-05T08:00:02;8.65;;;4.80;;
23136;SDS011;11737;50.558;7.258;2022-07-05T08:02:36;7.97;;;5.15;;
23136;SDS011;11737;50.558;7.258;2022-07-05T08:05:04;9.83;;;5.20;;
23136;SDS011;11737;50.558;7.258;2022-07-05T08:07:35;12.88;;;5.00;;
23136;SDS011;11737;50.558;7.258;2022-07-05T08:10:04;8.38;;;5.03;;
23136;SDS011;11737;50.558;7.258;2022-07-05T08:12:32;11.68;;;4.53;;
23136;SDS011;11737;50.558;7.258;2022-07-05T08:14:59;7.97;;;4.97;;
23136;SDS011;11737;50.558;7.258;2022-07-05T08:17:27;10.23;;;3.92;;
23136;SDS011;11737;50.558;7.258;2022-07-05T08:19:55;8.33;;;4.30;;
23136;SDS011;11737;50.558;7.258;2022-07-05T08:22:40;9.83;;;5.00;;
23136;SDS011;11737;50.558;7.258;2022-07-05T08:25:08;12.25;;;4.55;;
23136;SDS011;11737;50.558;7.258;2022-07-05T08:27:35;9.40;;;4.47;;
23136;SDS011;11737;50.558;7.258;2022-07-05T08:30:05;10.53;;;4.40;;
23136;SDS011;11737;50.558;7.258;2022-07-05T08:32:35;11.97;;;4.10;;
23136;SDS011;11737;50.558;7.258;2022-07-05T08:35:02;9.85;;;4.12;;
23136;SDS011;11737;50.558;7.258;2022-07-05T08:37:30;32.95;;;7.05;;
23136;SDS011;11737;50.558;7.258;2022-07-05T08:39:58;11.57;;;4.58;;
23136;SDS011;11737;50.558;7.258;2022-07-05T08:42:25;9.25;;;4.65;;
23136;SDS011;11737;50.558;7.258;2022-07-05T08:44:53;17.17;;;5.95;;
23136;SDS011;11737;50.558;7.258;2022-07-05T08:47:24;14.65;;;4.40;;
23136;SDS011;11737;50.558;7.258;2022-07-05T08:49:54;21.15;;;6.15;;
23136;SDS011;11737;50.558;7.258;2022-07-05T08:52:24;6.72;;;4.55;;
23136;SDS011;11737;50.558;7.258;2022-07-05T08:54:52;11.12;;;3.92;;
23136;SDS011;11737;50.558;7.258;2022-07-05T08:57:21;9.60;;;4.62;;
23136;SDS011;11737;50.558;7.258;2022-07-05T08:59:49;11.83;;;4.67;;
23136;SDS011;11737;50.558;7.258;2022-07-05T09:02:16;10.35;;;4.40;;
23136;SDS011;11737;50.558;7.258;2022-07-05T09:04:45;15.40;;;4.15;;
23136;SDS011;11737;50.558;7.258;2022-07-05T09:07:15;10.25;;;4.85;;
23136;SDS011;11737;50.558;7.258;2022-07-05T09:09:44;8.33;;;4.78;;
23136;SDS011;11737;50.558;7.258;2022-07-05T09:12:14;6.97;;;3.83;;
23136;SDS011;11737;50.558;7.258;2022-07-05T09:14:42;8.83;;;4.12;;
23136;SDS011;11737;50.558;7.258;2022-07-05T09:17:09;7.25;;;4.35;;
23136;SDS011;11737;50.558;7.258;2022-07-05T09:19:38;6.47;;;4.40;;
23136;SDS011;11737;50.558;7.258;2022-07-05T09:22:06;8.88;;;4.92;;
23136;SDS011;11737;50.558;7.258;2022-07-05T09:24:43;13.18;;;4.50;;
23136;SDS011;11737;50.558;7.258;2022-07-05T09:27:11;7.87;;;5.15;;
23136;SDS011;11737;50.558;7.258;2022-07-05T09:29:39;35.28;;;6.85;;
23136;SDS011;11737;50.558;7.258;2022-07-05T09:32:24;34.10;;;5.72;;
23136;SDS011;11737;50.558;7.258;2022-07-05T09:34:51;20.37;;;5.47;;
23136;SDS011;11737;50.558;7.258;2022-07-05T09:37:19;12.30;;;4.80;;
23136;SDS011;11737;50.558;7.258;2022-07-05T09:39:46;14.70;;;5.03;;
23136;SDS011;11737;50.558;7.258;2022-07-05T09:42:15;26.73;;;5.60;;
23136;SDS011;11737;50.558;7.258;2022-07-05T09:44:50;11.95;;;5.00;;
23136;SDS011;11737;50.558;7.258;2022-07-05T09:47:19;61.18;;;8.78;;
23136;SDS011;11737;50.558;7.258;2022-07-05T09:49:49;12.33;;;5.85;;
23136;SDS011;11737;50.558;7.258;2022-07-05T09:52:28;29.45;;;7.37;;
23136;SDS011;11737;50.558;7.258;2022-07-05T09:55:06;10.88;;;4.62;;
23136;SDS011;11737;50.558;7.258;2022-07-05T09:57:36;11.55;;;4.47;;
23136;SDS011;11737;50.558;7.258;2022-07-05T10:00:09;9.45;;;4.40;;
23136;SDS011;11737;50.558;7.258;2022-07-05T10:02:43;9.68;;;5.10;;
23136;SDS011;11737;50.558;7.258;2022-07-05T10:05:20;9.00;;;6.08;;
23136;SDS011;11737;50.558;7.258;2022-07-05T10:07:54;10.70;;;4.45;;
23136;SDS011;11737;50.558;7.258;2022-07-05T10:10:19;9.78;;;4.00;;
23136;SDS011;11737;50.558;7.258;2022-07-05T10:12:48;8.63;;;5.03;;
23136;SDS011;11737;50.558;7.258;2022-07-05T10:15:19;7.47;;;4.70;;
23136;SDS011;11737;50.558;7.258;2022-07-05T10:17:55;11.65;;;4.58;;
23136;SDS011;11737;50.558;7.258;2022-07-05T10:20:33;6.78;;;3.05;;
23136;SDS011;11737;50.558;7.258;2022-07-05T10:23:06;7.37;;;3.12;;
23136;SDS011;11737;50.558;7.258;2022-07-05T10:25:36;9.25;;;3.45;;
23136;SDS011;11737;50.558;7.258;2022-07-05T10:28:05;8.83;;;3.33;;
23136;SDS011;11737;50.558;7.258;2022-07-05T10:30:34;13.03;;;4.08;;
23136;SDS011;11737;50.558;7.258;2022-07-05T10:33:04;15.95;;;3.65;;
23136;SDS011;11737;50.558;7.258;2022-07-05T10:35:34;7.40;;;2.80;;
23136;SDS011;11737;50.558;7.258;2022-07-05T10:38:02;5.42;;;2.72;;
23136;SDS011;11737;50.558;7.258;2022-07-05T10:40:31;7.33;;;2.75;;
23136;SDS011;11737;50.558;7.258;2022-07-05T10:43:00;12.37;;;2.87;;
23136;SDS011;11737;50.558;7.258;2022-07-05T10:45:33;5.70;;;2.60;;
23136;SDS011;11737;50.558;7.258;2022-07-05T10:48:12;5.55;;;2.37;;
23136;SDS011;11737;50.558;7.258;2022-07-05T10:50:51;9.95;;;2.62;;
23136;SDS011;11737;50.558;7.258;2022-07-05T10:53:24;8.25;;;2.80;;
23136;SDS011;11737;50.558;7.258;2022-07-05T11:11:45;3.55;;;2.10;;
23136;SDS011;11737;50.558;7.258;2022-07-05T11:22:38;6.55;;;2.42;;
23136;SDS011;11737;50.558;7.258;2022-07-05T11:25:24;3.08;;;1.82;;
23136;SDS011;11737;50.558;7.258;2022-07-05T11:28:00;6.30;;;2.30;;
23136;SDS011;11737;50.558;7.258;2022-07-05T11:30:46;9.20;;;2.37;;
23136;SDS011;11737;50.558;7.258;2022-07-05T11:33:31;5.10;;;2.22;;
23136;SDS011;11737;50.558;7.258;2022-07-05T11:36:03;6.30;;;2.20;;
23136;SDS011;11737;50.558;7.258;2022-07-05T11:38:33;6.97;;;1.92;;
23136;SDS011;11737;50.558;7.258;2022-07-05T11:41:10;7.42;;;2.37;;
23136;SDS011;11737;50.558;7.258;2022-07-05T11:43:40;6.50;;;2.60;;
23136;SDS011;11737;50.558;7.258;2022-07-05T11:46:08;7.75;;;2.62;;
23136;SDS011;11737;50.558;7.258;2022-07-05T11:48:36;12.43;;;3.55;;
23136;SDS011;11737;50.558;7.258;2022-07-05T11:51:13;6.15;;;2.08;;
23136;SDS011;11737;50.558;7.258;2022-07-05T11:53:41;3.72;;;1.92;;
23136;SDS011;11737;50.558;7.258;2022-07-05T11:56:09;13.83;;;2.37;;
23136;SDS011;11737;50.558;7.258;2022-07-05T11:58:38;11.43;;;2.62;;
23136;SDS011;11737;50.558;7.258;2022-07-05T12:01:06;7.30;;;2.10;;
23136;SDS011;11737;50.558;7.258;2022-07-05T12:03:34;3.62;;;2.10;;
23136;SDS011;11737;50.558;7.258;2022-07-05T12:06:16;3.77;;;2.15;;
23136;SDS011;11737;50.558;7.258;2022-07-05T12:08:39;5.05;;;1.82;;
23136;SDS011;11737;50.558;7.258;2022-07-05T12:11:10;4.42;;;1.82;;
23136;SDS011;11737;50.558;7.258;2022-07-05T12:13:57;5.65;;;2.05;;
23136;SDS011;11737;50.558;7.258;2022-07-05T12:16:25;3.33;;;1.87;;
23136;SDS011;11737;50.558;7.258;2022-07-05T12:18:53;5.62;;;1.90;;
23136;SDS011;11737;50.558;7.258;2022-07-05T12:21:24;7.67;;;2.35;;
23136;SDS011;11737;50.558;7.258;2022-07-05T12:23:51;7.37;;;2.40;;
23136;SDS011;11737;50.558;7.258;2022-07-05T12:26:19;6.53;;;2.15;;
23136;SDS011;11737;50.558;7.258;2022-07-05T12:28:50;16.70;;;2.58;;
23136;SDS011;11737;50.558;7.258;2022-07-05T12:31:19;25.55;;;3.77;;
23136;SDS011;11737;50.558;7.258;2022-07-05T12:33:49;15.30;;;2.40;;
23136;SDS011;11737;50.558;7.258;2022-07-05T12:36:19;27.87;;;3.95;;
23136;SDS011;11737;50.558;7.258;2022-07-05T12:39:02;14.28;;;2.20;;
23136;SDS011;11737;50.558;7.258;2022-07-05T12:41:27;15.15;;;2.47;;
23136;SDS011;11737;50.558;7.258;2022-07-05T12:43:55;8.73;;;2.27;;
23136;SDS011;11737;50.558;7.258;2022-07-05T12:46:36;4.15;;;1.95;;
23136;SDS011;11737;50.558;7.258;2022-07-05T12:49:06;7.83;;;2.20;;
23136;SDS011;11737;50.558;7.258;2022-07-05T12:51:36;9.48;;;1.92;;
23136;SDS011;11737;50.558;7.258;2022-07-05T12:54:08;3.80;;;1.90;;
23136;SDS011;11737;50.558;7.258;2022-07-05T12:57:04;8.53;;;2.08;;
23136;SDS011;11737;50.558;7.258;2022-07-05T12:59:58;36.68;;;4.55;;
23136;SDS011;11737;50.558;7.258;2022-07-05T13:02:34;5.15;;;2.35;;
23136;SDS011;11737;50.558;7.258;2022-07-05T13:05:39;5.72;;;1.85;;
23136;SDS011;11737;50.558;7.258;2022-07-05T13:08:06;7.15;;;2.10;;
23136;SDS011;11737;50.558;7.258;2022-07-05T13:10:34;10.50;;;2.37;;
23136;SDS011;11737;50.558;7.258;2022-07-05T13:13:08;5.22;;;1.70;;
23136;SDS011;11737;50.558;7.258;2022-07-05T13:15:46;8.58;;;2.05;;
23136;SDS011;11737;50.558;7.258;2022-07-05T13:18:30;9.58;;;1.95;;
23136;SDS011;11737;50.558;7.258;2022-07-05T13:20:57;8.85;;;2.20;;
23136;SDS011;11737;50.558;7.258;2022-07-05T13:23:30;16.93;;;3.17;;
23136;SDS011;11737;50.558;7.258;2022-07-05T13:25:59;8.78;;;2.45;;
23136;SDS011;11737;50.558;7.258;2022-07-05T13:28:27;7.75;;;2.37;;
23136;SDS011;11737;50.558;7.258;2022-07-05T13:30:54;34.20;;;4.35;;
23136;SDS011;11737;50.558;7.258;2022-07-05T13:33:22;15.85;;;2.77;;
23136;SDS011;11737;50.558;7.258;2022-07-05T13:35:50;6.10;;;2.20;;
23136;SDS011;11737;50.558;7.258;2022-07-05T13:38:17;11.28;;;2.80;;
23136;SDS011;11737;50.558;7.258;2022-07-05T13:40:45;22.60;;;4.03;;
23136;SDS011;11737;50.558;7.258;2022-07-05T13:43:13;19.17;;;2.47;;
23136;SDS011;11737;50.558;7.258;2022-07-05T13:45:40;3.77;;;1.80;;
23136;SDS011;11737;50.558;7.258;2022-07-05T13:48:08;4.75;;;2.12;;
23136;SDS011;11737;50.558;7.258;2022-07-05T13:50:35;21.80;;;2.58;;
23136;SDS011;11737;50.558;7.258;2022-07-05T13:53:03;7.50;;;1.98;;
23136;SDS011;11737;50.558;7.258;2022-07-05T13:55:31;14.50;;;2.58;;
23136;SDS011;11737;50.558;7.258;2022-07-05T13:58:00;4.60;;;1.92;;
23136;SDS011;11737;50.558;7.258;2022-07-05T14:00:28;2.27;;;1.80;;
23136;SDS011;11737;50.558;7.258;2022-07-05T14:02:55;17.37;;;2.60;;
23136;SDS011;11737;50.558;7.258;2022-07-05T14:05:23;6.90;;;2.10;;
23136;SDS011;11737;50.558;7.258;2022-07-05T14:07:50;4.12;;;1.80;;
23136;SDS011;11737;50.558;7.258;2022-07-05T14:10:18;4.45;;;1.98;;
23136;SDS011;11737;50.558;7.258;2022-07-05T14:12:45;20.82;;;2.65;;
23136;SDS011;11737;50.558;7.258;2022-07-05T14:15:13;7.10;;;2.37;;
23136;SDS011;11737;50.558;7.258;2022-07-05T14:17:40;5.17;;;2.35;;
23136;SDS011;11737;50.558;7.258;2022-07-05T14:20:08;6.87;;;2.00;;
23136;SDS011;11737;50.558;7.258;2022-07-05T14:22:36;13.85;;;2.65;;
23136;SDS011;11737;50.558;7.258;2022-07-05T14:25:04;5.58;;;2.00;;
23136;SDS011;11737;50.558;7.258;2022-07-05T14:27:31;5.33;;;2.12;;
23136;SDS011;11737;50.558;7.258;2022-07-05T14:29:59;6.60;;;1.70;;
23136;SDS011;11737;50.558;7.258;2022-07-05T14:32:28;5.10;;;2.05;;
23136;SDS011;11737;50.558;7.258;2022-07-05T14:34:55;6.12;;;2.08;;
23136;SDS011;11737;50.558;7.258;2022-07-05T14:37:23;3.37;;;2.00;;
23136;SDS011;11737;50.558;7.258;2022-07-05T14:39:50;3.65;;;1.45;;
23136;SDS011;11737;50.558;7.258;2022-07-05T14:42:18;5.20;;;1.67;;
23136;SDS011;11737;50.558;7.258;2022-07-05T14:44:46;8.68;;;2.22;;
23136;SDS011;11737;50.558;7.258;2022-07-05T14:47:13;3.25;;;1.90;;
23136;SDS011;11737;50.558;7.258;2022-07-05T14:49:41;6.87;;;2.10;;
23136;SDS011;11737;50.558;7.258;2022-07-05T14:52:08;4.80;;;1.82;;
23136;SDS011;11737;50.558;7.258;2022-07-05T14:54:36;6.90;;;2.02;;
23136;SDS011;11737;50.558;7.258;2022-07-05T14:57:04;5.67;;;2.22;;
23136;SDS011;11737;50.558;7.258;2022-07-05T14:59:32;3.98;;;2.45;;
23136;SDS011;11737;50.558;7.258;2022-07-05T15:02:01;3.22;;;1.95;;
23136;SDS011;11737;50.558;7.258;2022-07-05T15:04:31;3.87;;;2.08;;
23136;SDS011;11737;50.558;7.258;2022-07-05T15:06:58;8.23;;;2.55;;
23136;SDS011;11737;50.558;7.258;2022-07-05T15:09:26;10.85;;;2.35;;
23136;SDS011;11737;50.558;7.258;2022-07-05T15:11:53;6.12;;;2.00;;
23136;SDS011;11737;50.558;7.258;2022-07-05T15:14:27;6.60;;;2.00;;
23136;SDS011;11737;50.558;7.258;2022-07-05T15:16:54;10.68;;;2.22;;
23136;SDS011;11737;50.558;7.258;2022-07-05T15:22:09;3.62;;;1.90;;
23136;SDS011;11737;50.558;7.258;2022-07-05T15:24:37;4.45;;;2.22;;